sensor_id;sensor_type;location;lat;lon;timestamp;P1;durP1;ratioP1;P2;durP2;ratioP2
85011;SDS011;75336;42.142;21.732;2024-02-26T00:00:00;24.75;;;15.98;;
85011;SDS011;75336;42.142;21.732;2024-02-26T00:02:26;26.25;;;15.95;;
85011;SDS011;75336;42.142;21.732;2024-02-26T00:04:53;20.33;;;14.05;;
85011;SDS011;75336;42.142;21.732;2024-02-26T00:07:19;20.67;;;13.13;;
85011;SDS011;75336;42.142;21.732;2024-02-26T00:09:45;16.15;;;11.45;;
85011;SDS011;75336;42.142;21.732;2024-02-26T00:12:11;19.48;;;12.98;;
85011;SDS011;75336;42.142;21.732;2024-02-26T00:14:37;21.15;;;12.73;;
85011;SDS011;75336;42.142;21.732;2024-02-26T00:17:03;20.90;;;12.25;;
85011;SDS011;75336;42.142;21.732;2024-02-26T00:19:30;20.02;;;13.13;;
85011;SDS011;75336;42.142;21.732;2024-02-26T00:21:56;18.75;;;11.13;;
85011;SDS011;75336;42.142;21.732;2024-02-26T00:24:22;13.05;;;8.80;;
85011;SDS011;75336;42.142;21.732;2024-02-26T00:26:48;12.23;;;9.32;;
85011;SDS011;75336;42.142;21.732;2024-02-26T00:29:18;12.25;;;8.65;;
85011;SDS011;75336;42.142;21.732;2024-02-26T00:31:44;14.07;;;8.18;;
85011;SDS011;75336;42.142;21.732;2024-02-26T00:34:11;16.83;;;9.82;;
85011;SDS011;75336;42.142;21.732;2024-02-26T00:36:37;13.27;;;8.95;;
85011;SDS011;75336;42.142;21.732;2024-02-26T00:39:03;19.63;;;9.98;;
85011;SDS011;75336;42.142;21.732;2024-02-26T00:41:29;12.57;;;9.85;;
85011;SDS011;75336;42.142;21.732;2024-02-26T00:43:55;14.93;;;10.32;;
85011;SDS011;75336;42.142;21.732;2024-02-26T00:46:21;17.83;;;12.18;;
85011;SDS011;75336;42.142;21.732;2024-02-26T00:48:47;17.05;;;10.77;;
85011;SDS011;75336;42.142;21.732;2024-02-26T00:51:13;14.40;;;8.93;;
85011;SDS011;75336;42.142;21.732;2024-02-26T00:53:40;15.52;;;8.90;;
85011;SDS011;75336;42.142;21.732;2024-02-26T00:56:06;11.45;;;7.43;;
85011;SDS011;75336;42.142;21.732;2024-02-26T00:58:33;12.32;;;8.52;;
85011;SDS011;75336;42.142;21.732;2024-02-26T01:00:59;10.63;;;8.18;;
85011;SDS011;75336;42.142;21.732;2024-02-26T01:03:25;10.95;;;8.13;;
85011;SDS011;75336;42.142;21.732;2024-02-26T01:05:51;13.23;;;9.80;;
85011;SDS011;75336;42.142;21.732;2024-02-26T01:08:17;10.38;;;7.60;;
85011;SDS011;75336;42.142;21.732;2024-02-26T01:10:43;11.00;;;7.65;;
85011;SDS011;75336;42.142;21.732;2024-02-26T01:13:10;10.85;;;7.18;;
85011;SDS011;75336;42.142;21.732;2024-02-26T01:15:36;15.25;;;8.15;;
85011;SDS011;75336;42.142;21.732;2024-02-26T01:18:02;15.48;;;8.05;;
85011;SDS011;75336;42.142;21.732;2024-02-26T01:20:28;14.05;;;7.47;;
85011;SDS011;75336;42.142;21.732;2024-02-26T01:22:54;9.23;;;7.15;;
85011;SDS011;75336;42.142;21.732;2024-02-26T01:25:20;11.90;;;7.93;;
85011;SDS011;75336;42.142;21.732;2024-02-26T01:27:47;10.50;;;7.47;;
85011;SDS011;75336;42.142;21.732;2024-02-26T01:30:13;15.20;;;9.70;;
85011;SDS011;75336;42.142;21.732;2024-02-26T01:32:41;17.25;;;10.90;;
85011;SDS011;75336;42.142;21.732;2024-02-26T01:35:08;19.17;;;13.85;;
85011;SDS011;75336;42.142;21.732;2024-02-26T01:37:36;17.80;;;11.07;;
85011;SDS011;75336;42.142;21.732;2024-02-26T01:40:03;13.15;;;8.85;;
85011;SDS011;75336;42.142;21.732;2024-02-26T01:42:30;17.70;;;9.90;;
85011;SDS011;75336;42.142;21.732;2024-02-26T01:44:57;15.00;;;9.38;;
85011;SDS011;75336;42.142;21.732;2024-02-26T01:47:24;14.30;;;9.35;;
85011;SDS011;75336;42.142;21.732;2024-02-26T01:49:52;14.52;;;9.85;;
85011;SDS011;75336;42.142;21.732;2024-02-26T01:52:18;11.15;;;8.98;;
85011;SDS011;75336;42.142;21.732;2024-02-26T01:54:45;14.25;;;8.82;;
85011;SDS011;75336;42.142;21.732;2024-02-26T01:57:11;11.95;;;7.43;;
85011;SDS011;75336;42.142;21.732;2024-02-26T01:59:38;12.95;;;8.10;;
85011;SDS011;75336;42.142;21.732;2024-02-26T02:02:05;10.98;;;7.88;;
85011;SDS011;75336;42.142;21.732;2024-02-26T02:04:32;10.35;;;6.95;;
85011;SDS011;75336;42.142;21.732;2024-02-26T02:06:58;13.60;;;7.57;;
85011;SDS011;75336;42.142;21.732;2024-02-26T02:09:26;9.32;;;6.93;;
85011;SDS011;75336;42.142;21.732;2024-02-26T02:11:53;13.25;;;7.18;;
85011;SDS011;75336;42.142;21.732;2024-02-26T02:14:19;10.80;;;7.13;;
85011;SDS011;75336;42.142;21.732;2024-02-26T02:16:46;9.43;;;7.40;;
85011;SDS011;75336;42.142;21.732;2024-02-26T02:19:13;10.07;;;6.93;;
85011;SDS011;75336;42.142;21.732;2024-02-26T02:21:39;12.63;;;7.53;;
85011;SDS011;75336;42.142;21.732;2024-02-26T02:24:05;11.23;;;8.02;;
85011;SDS011;75336;42.142;21.732;2024-02-26T02:26:31;8.95;;;7.43;;
85011;SDS011;75336;42.142;21.732;2024-02-26T02:28:57;9.70;;;8.18;;
85011;SDS011;75336;42.142;21.732;2024-02-26T02:31:24;13.55;;;7.50;;
85011;SDS011;75336;42.142;21.732;2024-02-26T02:33:50;13.98;;;8.55;;
85011;SDS011;75336;42.142;21.732;2024-02-26T02:36:17;14.10;;;7.95;;
85011;SDS011;75336;42.142;21.732;2024-02-26T02:38:49;12.98;;;7.63;;
85011;SDS011;75336;42.142;21.732;2024-02-26T02:41:16;10.00;;;7.03;;
85011;SDS011;75336;42.142;21.732;2024-02-26T02:43:42;8.68;;;6.03;;
85011;SDS011;75336;42.142;21.732;2024-02-26T02:46:08;11.85;;;7.10;;
85011;SDS011;75336;42.142;21.732;2024-02-26T02:48:36;8.90;;;7.43;;
85011;SDS011;75336;42.142;21.732;2024-02-26T02:51:03;10.93;;;6.63;;
85011;SDS011;75336;42.142;21.732;2024-02-26T02:53:29;11.20;;;7.13;;
85011;SDS011;75336;42.142;21.732;2024-02-26T02:55:55;8.93;;;6.80;;
85011;SDS011;75336;42.142;21.732;2024-02-26T02:58:21;10.23;;;6.65;;
85011;SDS011;75336;42.142;21.732;2024-02-26T03:00:47;13.77;;;7.22;;
85011;SDS011;75336;42.142;21.732;2024-02-26T03:03:13;9.75;;;7.07;;
85011;SDS011;75336;42.142;21.732;2024-02-26T03:05:39;14.65;;;9.20;;
85011;SDS011;75336;42.142;21.732;2024-02-26T03:08:06;25.92;;;14.45;;
85011;SDS011;75336;42.142;21.732;2024-02-26T03:10:32;15.48;;;9.73;;
85011;SDS011;75336;42.142;21.732;2024-02-26T03:12:58;17.45;;;8.95;;
85011;SDS011;75336;42.142;21.732;2024-02-26T03:15:24;11.00;;;8.27;;
85011;SDS011;75336;42.142;21.732;2024-02-26T03:17:50;10.50;;;8.52;;
85011;SDS011;75336;42.142;21.732;2024-02-26T03:20:16;14.02;;;8.40;;
85011;SDS011;75336;42.142;21.732;2024-02-26T03:25:10;12.65;;;8.30;;
85011;SDS011;75336;42.142;21.732;2024-02-26T03:27:36;12.52;;;7.07;;
85011;SDS011;75336;42.142;21.732;2024-02-26T03:30:02;12.45;;;7.15;;
85011;SDS011;75336;42.142;21.732;2024-02-26T03:32:29;12.02;;;7.68;;
85011;SDS011;75336;42.142;21.732;2024-02-26T03:34:55;10.60;;;7.38;;
85011;SDS011;75336;42.142;21.732;2024-02-26T03:37:21;11.48;;;7.10;;
85011;SDS011;75336;42.142;21.732;2024-02-26T03:39:47;12.32;;;8.35;;
85011;SDS011;75336;42.142;21.732;2024-02-26T03:42:13;15.25;;;8.45;;
85011;SDS011;75336;42.142;21.732;2024-02-26T03:47:07;14.80;;;8.68;;
85011;SDS011;75336;42.142;21.732;2024-02-26T03:49:33;12.77;;;8.30;;
85011;SDS011;75336;42.142;21.732;2024-02-26T03:51:59;13.55;;;9.07;;
85011;SDS011;75336;42.142;21.732;2024-02-26T03:54:25;14.85;;;8.90;;
85011;SDS011;75336;42.142;21.732;2024-02-26T03:56:51;14.63;;;8.23;;
85011;SDS011;75336;42.142;21.732;2024-02-26T03:59:17;18.90;;;12.05;;
85011;SDS011;75336;42.142;21.732;2024-02-26T04:01:45;27.85;;;12.45;;
85011;SDS011;75336;42.142;21.732;2024-02-26T04:04:14;17.52;;;11.35;;
85011;SDS011;75336;42.142;21.732;2024-02-26T04:06:44;20.23;;;12.15;;
85011;SDS011;75336;42.142;21.732;2024-02-26T04:09:11;21.90;;;11.73;;
85011;SDS011;75336;42.142;21.732;2024-02-26T04:11:37;45.78;;;25.30;;
85011;SDS011;75336;42.142;21.732;2024-02-26T04:14:03;50.63;;;25.45;;
85011;SDS011;75336;42.142;21.732;2024-02-26T04:18:57;25.33;;;15.38;;
85011;SDS011;75336;42.142;21.732;2024-02-26T04:21:23;23.98;;;12.38;;
85011;SDS011;75336;42.142;21.732;2024-02-26T04:23:49;15.93;;;10.65;;
85011;SDS011;75336;42.142;21.732;2024-02-26T04:26:15;23.08;;;13.88;;
85011;SDS011;75336;42.142;21.732;2024-02-26T04:28:41;29.83;;;17.20;;
85011;SDS011;75336;42.142;21.732;2024-02-26T04:31:07;23.80;;;14.80;;
85011;SDS011;75336;42.142;21.732;2024-02-26T04:33:34;23.83;;;15.13;;
85011;SDS011;75336;42.142;21.732;2024-02-26T04:36:00;17.73;;;13.05;;
85011;SDS011;75336;42.142;21.732;2024-02-26T04:38:26;19.20;;;12.45;;
85011;SDS011;75336;42.142;21.732;2024-02-26T04:40:52;22.58;;;10.45;;
85011;SDS011;75336;42.142;21.732;2024-02-26T04:43:19;12.95;;;8.98;;
85011;SDS011;75336;42.142;21.732;2024-02-26T04:45:45;13.32;;;8.98;;
85011;SDS011;75336;42.142;21.732;2024-02-26T04:48:11;18.42;;;10.27;;
85011;SDS011;75336;42.142;21.732;2024-02-26T04:50:37;20.33;;;14.13;;
85011;SDS011;75336;42.142;21.732;2024-02-26T04:53:03;15.98;;;12.40;;
85011;SDS011;75336;42.142;21.732;2024-02-26T04:55:30;15.02;;;10.88;;
85011;SDS011;75336;42.142;21.732;2024-02-26T04:57:56;16.23;;;12.02;;
85011;SDS011;75336;42.142;21.732;2024-02-26T05:00:22;20.50;;;12.30;;
85011;SDS011;75336;42.142;21.732;2024-02-26T05:02:48;15.85;;;10.45;;
85011;SDS011;75336;42.142;21.732;2024-02-26T05:05:14;15.52;;;10.40;;
85011;SDS011;75336;42.142;21.732;2024-02-26T05:07:40;17.30;;;11.85;;
85011;SDS011;75336;42.142;21.732;2024-02-26T05:10:10;48.00;;;25.35;;
85011;SDS011;75336;42.142;21.732;2024-02-26T05:12:36;69.97;;;31.98;;
85011;SDS011;75336;42.142;21.732;2024-02-26T05:15:03;60.63;;;31.17;;
85011;SDS011;75336;42.142;21.732;2024-02-26T05:17:29;39.30;;;21.13;;
85011;SDS011;75336;42.142;21.732;2024-02-26T05:19:55;40.58;;;23.20;;
85011;SDS011;75336;42.142;21.732;2024-02-26T05:22:21;29.08;;;18.25;;
85011;SDS011;75336;42.142;21.732;2024-02-26T05:24:47;32.63;;;18.10;;
85011;SDS011;75336;42.142;21.732;2024-02-26T05:27:14;22.52;;;16.20;;
85011;SDS011;75336;42.142;21.732;2024-02-26T05:29:40;42.95;;;26.55;;
85011;SDS011;75336;42.142;21.732;2024-02-26T05:32:06;33.75;;;23.10;;
85011;SDS011;75336;42.142;21.732;2024-02-26T05:34:32;33.67;;;19.27;;
85011;SDS011;75336;42.142;21.732;2024-02-26T05:36:58;25.77;;;18.00;;
85011;SDS011;75336;42.142;21.732;2024-02-26T05:39:24;35.58;;;22.63;;
85011;SDS011;75336;42.142;21.732;2024-02-26T05:41:50;34.03;;;20.75;;
85011;SDS011;75336;42.142;21.732;2024-02-26T05:44:17;29.40;;;18.88;;
85011;SDS011;75336;42.142;21.732;2024-02-26T05:46:43;35.92;;;20.40;;
85011;SDS011;75336;42.142;21.732;2024-02-26T05:49:09;33.60;;;18.05;;
85011;SDS011;75336;42.142;21.732;2024-02-26T05:51:35;25.30;;;15.38;;
85011;SDS011;75336;42.142;21.732;2024-02-26T05:54:01;24.05;;;15.55;;
85011;SDS011;75336;42.142;21.732;2024-02-26T05:56:27;28.45;;;17.38;;
85011;SDS011;75336;42.142;21.732;2024-02-26T05:58:53;23.40;;;16.05;;
85011;SDS011;75336;42.142;21.732;2024-02-26T06:01:20;25.48;;;18.98;;
85011;SDS011;75336;42.142;21.732;2024-02-26T06:03:46;28.13;;;18.15;;
85011;SDS011;75336;42.142;21.732;2024-02-26T06:06:12;24.05;;;15.88;;
85011;SDS011;75336;42.142;21.732;2024-02-26T06:08:40;25.40;;;16.40;;
85011;SDS011;75336;42.142;21.732;2024-02-26T06:11:06;27.30;;;16.70;;
85011;SDS011;75336;42.142;21.732;2024-02-26T06:13:33;31.20;;;20.63;;
85011;SDS011;75336;42.142;21.732;2024-02-26T06:16:00;27.75;;;16.55;;
85011;SDS011;75336;42.142;21.732;2024-02-26T06:18:26;21.52;;;14.95;;
85011;SDS011;75336;42.142;21.732;2024-02-26T06:20:52;24.98;;;15.20;;
85011;SDS011;75336;42.142;21.732;2024-02-26T06:23:18;22.23;;;14.05;;
85011;SDS011;75336;42.142;21.732;2024-02-26T06:25:44;24.50;;;14.88;;
85011;SDS011;75336;42.142;21.732;2024-02-26T06:28:13;29.65;;;17.13;;
85011;SDS011;75336;42.142;21.732;2024-02-26T06:30:39;20.55;;;13.38;;
85011;SDS011;75336;42.142;21.732;2024-02-26T06:33:05;36.65;;;17.42;;
85011;SDS011;75336;42.142;21.732;2024-02-26T06:35:31;30.25;;;16.50;;
85011;SDS011;75336;42.142;21.732;2024-02-26T06:37:57;27.20;;;17.95;;
85011;SDS011;75336;42.142;21.732;2024-02-26T06:40:24;22.85;;;14.50;;
85011;SDS011;75336;42.142;21.732;2024-02-26T06:42:50;21.50;;;14.48;;
85011;SDS011;75336;42.142;21.732;2024-02-26T06:45:17;21.38;;;12.38;;
85011;SDS011;75336;42.142;21.732;2024-02-26T06:47:44;28.50;;;17.83;;
85011;SDS011;75336;42.142;21.732;2024-02-26T06:50:13;21.48;;;12.75;;
85011;SDS011;75336;42.142;21.732;2024-02-26T06:52:40;18.95;;;12.48;;
85011;SDS011;75336;42.142;21.732;2024-02-26T06:55:06;31.92;;;17.52;;
85011;SDS011;75336;42.142;21.732;2024-02-26T06:57:33;32.58;;;18.02;;
85011;SDS011;75336;42.142;21.732;2024-02-26T06:59:59;29.67;;;16.80;;
85011;SDS011;75336;42.142;21.732;2024-02-26T07:02:29;30.67;;;22.48;;
85011;SDS011;75336;42.142;21.732;2024-02-26T07:04:55;19.98;;;15.48;;
85011;SDS011;75336;42.142;21.732;2024-02-26T07:09:49;22.75;;;13.85;;
85011;SDS011;75336;42.142;21.732;2024-02-26T07:12:15;17.95;;;14.10;;
85011;SDS011;75336;42.142;21.732;2024-02-26T07:14:42;18.90;;;13.57;;
85011;SDS011;75336;42.142;21.732;2024-02-26T07:17:08;19.48;;;12.18;;
85011;SDS011;75336;42.142;21.732;2024-02-26T07:19:34;19.58;;;13.25;;
85011;SDS011;75336;42.142;21.732;2024-02-26T07:22:00;16.80;;;10.50;;
85011;SDS011;75336;42.142;21.732;2024-02-26T07:24:27;14.18;;;10.73;;
85011;SDS011;75336;42.142;21.732;2024-02-26T07:26:53;11.63;;;9.13;;
85011;SDS011;75336;42.142;21.732;2024-02-26T07:29:20;13.50;;;9.52;;
85011;SDS011;75336;42.142;21.732;2024-02-26T07:31:46;22.60;;;13.45;;
85011;SDS011;75336;42.142;21.732;2024-02-26T07:34:13;22.42;;;12.13;;
85011;SDS011;75336;42.142;21.732;2024-02-26T07:36:39;12.88;;;10.00;;
85011;SDS011;75336;42.142;21.732;2024-02-26T07:39:05;16.65;;;11.73;;
85011;SDS011;75336;42.142;21.732;2024-02-26T07:41:31;16.83;;;11.95;;
85011;SDS011;75336;42.142;21.732;2024-02-26T07:43:58;13.23;;;9.82;;
85011;SDS011;75336;42.142;21.732;2024-02-26T07:46:24;17.88;;;11.45;;
85011;SDS011;75336;42.142;21.732;2024-02-26T07:48:50;12.98;;;9.95;;
85011;SDS011;75336;42.142;21.732;2024-02-26T07:51:16;12.48;;;9.68;;
85011;SDS011;75336;42.142;21.732;2024-02-26T07:53:42;11.73;;;8.38;;
85011;SDS011;75336;42.142;21.732;2024-02-26T07:56:09;13.20;;;9.00;;
85011;SDS011;75336;42.142;21.732;2024-02-26T07:58:35;14.77;;;8.60;;
85011;SDS011;75336;42.142;21.732;2024-02-26T08:01:01;11.80;;;8.63;;
85011;SDS011;75336;42.142;21.732;2024-02-26T08:03:27;7.40;;;5.95;;
85011;SDS011;75336;42.142;21.732;2024-02-26T08:05:53;11.93;;;9.40;;
85011;SDS011;75336;42.142;21.732;2024-02-26T08:08:20;14.20;;;8.98;;
85011;SDS011;75336;42.142;21.732;2024-02-26T08:10:46;12.50;;;8.05;;
85011;SDS011;75336;42.142;21.732;2024-02-26T08:13:12;13.30;;;7.50;;
85011;SDS011;75336;42.142;21.732;2024-02-26T08:15:38;9.30;;;6.32;;
85011;SDS011;75336;42.142;21.732;2024-02-26T08:18:05;12.77;;;7.93;;
85011;SDS011;75336;42.142;21.732;2024-02-26T08:20:31;11.77;;;9.02;;
85011;SDS011;75336;42.142;21.732;2024-02-26T08:22:57;9.57;;;7.50;;
85011;SDS011;75336;42.142;21.732;2024-02-26T08:25:23;8.20;;;6.28;;
85011;SDS011;75336;42.142;21.732;2024-02-26T08:27:50;10.23;;;7.18;;
85011;SDS011;75336;42.142;21.732;2024-02-26T08:30:16;12.18;;;7.70;;
85011;SDS011;75336;42.142;21.732;2024-02-26T08:32:43;13.05;;;10.13;;
85011;SDS011;75336;42.142;21.732;2024-02-26T08:35:09;11.98;;;6.78;;
85011;SDS011;75336;42.142;21.732;2024-02-26T08:37:36;12.45;;;7.88;;
85011;SDS011;75336;42.142;21.732;2024-02-26T08:40:02;10.85;;;7.53;;
85011;SDS011;75336;42.142;21.732;2024-02-26T08:42:29;13.55;;;8.23;;
85011;SDS011;75336;42.142;21.732;2024-02-26T08:44:55;7.68;;;4.65;;
85011;SDS011;75336;42.142;21.732;2024-02-26T08:47:21;7.43;;;4.88;;
85011;SDS011;75336;42.142;21.732;2024-02-26T08:49:48;10.45;;;5.93;;
85011;SDS011;75336;42.142;21.732;2024-02-26T08:52:14;9.07;;;5.63;;
85011;SDS011;75336;42.142;21.732;2024-02-26T08:54:40;7.90;;;5.55;;
85011;SDS011;75336;42.142;21.732;2024-02-26T08:57:07;17.05;;;7.18;;
85011;SDS011;75336;42.142;21.732;2024-02-26T08:59:33;8.50;;;5.22;;
85011;SDS011;75336;42.142;21.732;2024-02-26T09:01:59;9.13;;;6.28;;
85011;SDS011;75336;42.142;21.732;2024-02-26T09:04:25;8.73;;;6.03;;
85011;SDS011;75336;42.142;21.732;2024-02-26T09:06:52;10.52;;;6.22;;
85011;SDS011;75336;42.142;21.732;2024-02-26T09:09:19;8.60;;;6.03;;
85011;SDS011;75336;42.142;21.732;2024-02-26T09:11:45;12.27;;;7.40;;
85011;SDS011;75336;42.142;21.732;2024-02-26T09:14:12;11.60;;;8.45;;
85011;SDS011;75336;42.142;21.732;2024-02-26T09:16:38;11.70;;;7.70;;
85011;SDS011;75336;42.142;21.732;2024-02-26T09:19:04;12.20;;;9.18;;
85011;SDS011;75336;42.142;21.732;2024-02-26T09:21:30;13.93;;;7.68;;
85011;SDS011;75336;42.142;21.732;2024-02-26T09:23:56;12.25;;;7.97;;
85011;SDS011;75336;42.142;21.732;2024-02-26T09:26:22;12.10;;;7.75;;
85011;SDS011;75336;42.142;21.732;2024-02-26T09:28:48;10.20;;;6.10;;
85011;SDS011;75336;42.142;21.732;2024-02-26T09:31:17;11.15;;;6.95;;
85011;SDS011;75336;42.142;21.732;2024-02-26T09:33:43;9.32;;;7.75;;
85011;SDS011;75336;42.142;21.732;2024-02-26T09:36:09;8.30;;;5.75;;
85011;SDS011;75336;42.142;21.732;2024-02-26T09:38:36;10.73;;;7.35;;
85011;SDS011;75336;42.142;21.732;2024-02-26T09:41:04;11.07;;;6.50;;
85011;SDS011;75336;42.142;21.732;2024-02-26T09:43:34;7.47;;;4.93;;
85011;SDS011;75336;42.142;21.732;2024-02-26T09:46:01;7.57;;;4.00;;
85011;SDS011;75336;42.142;21.732;2024-02-26T09:48:28;5.82;;;4.35;;
85011;SDS011;75336;42.142;21.732;2024-02-26T09:50:55;11.48;;;7.15;;
85011;SDS011;75336;42.142;21.732;2024-02-26T09:53:21;16.35;;;8.15;;
85011;SDS011;75336;42.142;21.732;2024-02-26T09:55:48;15.20;;;6.68;;
85011;SDS011;75336;42.142;21.732;2024-02-26T09:58:14;15.63;;;6.10;;
85011;SDS011;75336;42.142;21.732;2024-02-26T10:00:43;7.97;;;3.80;;
85011;SDS011;75336;42.142;21.732;2024-02-26T10:03:13;12.57;;;8.65;;
85011;SDS011;75336;42.142;21.732;2024-02-26T10:05:41;11.05;;;7.03;;
85011;SDS011;75336;42.142;21.732;2024-02-26T10:08:08;11.18;;;4.53;;
85011;SDS011;75336;42.142;21.732;2024-02-26T10:15:26;14.25;;;9.25;;
85011;SDS011;75336;42.142;21.732;2024-02-26T10:17:53;11.02;;;6.05;;
85011;SDS011;75336;42.142;21.732;2024-02-26T10:20:19;6.50;;;5.20;;
85011;SDS011;75336;42.142;21.732;2024-02-26T10:22:48;10.23;;;4.38;;
85011;SDS011;75336;42.142;21.732;2024-02-26T10:25:15;7.18;;;4.40;;
85011;SDS011;75336;42.142;21.732;2024-02-26T10:27:41;8.85;;;4.90;;
85011;SDS011;75336;42.142;21.732;2024-02-26T10:32:40;7.05;;;5.35;;
85011;SDS011;75336;42.142;21.732;2024-02-26T10:35:08;16.83;;;7.43;;
85011;SDS011;75336;42.142;21.732;2024-02-26T10:37:34;9.48;;;5.85;;
85011;SDS011;75336;42.142;21.732;2024-02-26T10:40:01;5.93;;;3.78;;
85011;SDS011;75336;42.142;21.732;2024-02-26T10:42:28;6.65;;;3.83;;
85011;SDS011;75336;42.142;21.732;2024-02-26T10:44:54;5.97;;;4.18;;
85011;SDS011;75336;42.142;21.732;2024-02-26T10:47:20;6.53;;;3.25;;
85011;SDS011;75336;42.142;21.732;2024-02-26T10:49:47;5.75;;;3.33;;
85011;SDS011;75336;42.142;21.732;2024-02-26T10:52:13;3.85;;;2.97;;
85011;SDS011;75336;42.142;21.732;2024-02-26T10:54:41;7.57;;;4.45;;
85011;SDS011;75336;42.142;21.732;2024-02-26T10:57:09;7.55;;;3.50;;
85011;SDS011;75336;42.142;21.732;2024-02-26T10:59:37;7.57;;;4.50;;
85011;SDS011;75336;42.142;21.732;2024-02-26T11:02:04;4.70;;;3.08;;
85011;SDS011;75336;42.142;21.732;2024-02-26T11:04:31;6.93;;;3.65;;
85011;SDS011;75336;42.142;21.732;2024-02-26T11:06:58;3.13;;;2.38;;
85011;SDS011;75336;42.142;21.732;2024-02-26T11:09:26;3.55;;;2.42;;
85011;SDS011;75336;42.142;21.732;2024-02-26T11:11:53;4.75;;;3.42;;
85011;SDS011;75336;42.142;21.732;2024-02-26T11:14:20;10.27;;;4.38;;
85011;SDS011;75336;42.142;21.732;2024-02-26T11:16:47;4.95;;;2.00;;
85011;SDS011;75336;42.142;21.732;2024-02-26T11:19:13;4.85;;;3.47;;
85011;SDS011;75336;42.142;21.732;2024-02-26T11:21:40;4.93;;;3.10;;
85011;SDS011;75336;42.142;21.732;2024-02-26T11:24:13;7.80;;;3.55;;
85011;SDS011;75336;42.142;21.732;2024-02-26T11:26:43;4.30;;;3.15;;
85011;SDS011;75336;42.142;21.732;2024-02-26T11:29:13;8.13;;;3.83;;
85011;SDS011;75336;42.142;21.732;2024-02-26T11:31:41;6.93;;;4.82;;
85011;SDS011;75336;42.142;21.732;2024-02-26T11:34:08;6.38;;;3.10;;
85011;SDS011;75336;42.142;21.732;2024-02-26T11:36:35;5.22;;;2.95;;
85011;SDS011;75336;42.142;21.732;2024-02-26T11:39:03;8.00;;;5.18;;
85011;SDS011;75336;42.142;21.732;2024-02-26T11:41:30;10.85;;;4.53;;
85011;SDS011;75336;42.142;21.732;2024-02-26T11:44:01;7.75;;;4.20;;
85011;SDS011;75336;42.142;21.732;2024-02-26T11:46:31;8.98;;;3.10;;
85011;SDS011;75336;42.142;21.732;2024-02-26T11:51:43;5.78;;;3.13;;
85011;SDS011;75336;42.142;21.732;2024-02-26T11:54:09;10.00;;;3.33;;
85011;SDS011;75336;42.142;21.732;2024-02-26T11:56:40;9.02;;;3.83;;
85011;SDS011;75336;42.142;21.732;2024-02-26T11:59:10;6.90;;;4.43;;
85011;SDS011;75336;42.142;21.732;2024-02-26T12:01:41;6.07;;;4.03;;
85011;SDS011;75336;42.142;21.732;2024-02-26T12:04:09;7.05;;;4.20;;
85011;SDS011;75336;42.142;21.732;2024-02-26T12:06:47;10.02;;;5.95;;
85011;SDS011;75336;42.142;21.732;2024-02-26T12:09:13;11.90;;;6.97;;
85011;SDS011;75336;42.142;21.732;2024-02-26T12:11:40;6.13;;;3.28;;
85011;SDS011;75336;42.142;21.732;2024-02-26T12:14:09;5.90;;;2.97;;
85011;SDS011;75336;42.142;21.732;2024-02-26T12:16:36;5.47;;;3.45;;
85011;SDS011;75336;42.142;21.732;2024-02-26T12:19:06;8.27;;;2.85;;
85011;SDS011;75336;42.142;21.732;2024-02-26T12:21:36;5.10;;;3.05;;
85011;SDS011;75336;42.142;21.732;2024-02-26T12:24:12;3.72;;;2.85;;
85011;SDS011;75336;42.142;21.732;2024-02-26T12:26:39;7.35;;;3.40;;
85011;SDS011;75336;42.142;21.732;2024-02-26T12:29:05;6.13;;;3.60;;
85011;SDS011;75336;42.142;21.732;2024-02-26T12:31:32;6.68;;;3.42;;
85011;SDS011;75336;42.142;21.732;2024-02-26T12:34:01;5.43;;;3.00;;
85011;SDS011;75336;42.142;21.732;2024-02-26T12:36:27;6.07;;;3.40;;
85011;SDS011;75336;42.142;21.732;2024-02-26T12:38:53;6.18;;;4.30;;
85011;SDS011;75336;42.142;21.732;2024-02-26T12:41:20;7.35;;;4.05;;
85011;SDS011;75336;42.142;21.732;2024-02-26T12:43:46;9.45;;;5.70;;
85011;SDS011;75336;42.142;21.732;2024-02-26T12:46:13;6.03;;;3.53;;
85011;SDS011;75336;42.142;21.732;2024-02-26T12:48:43;6.75;;;4.47;;
85011;SDS011;75336;42.142;21.732;2024-02-26T12:51:10;7.32;;;3.97;;
85011;SDS011;75336;42.142;21.732;2024-02-26T12:53:37;10.90;;;4.60;;
85011;SDS011;75336;42.142;21.732;2024-02-26T12:56:05;10.73;;;5.18;;
85011;SDS011;75336;42.142;21.732;2024-02-26T12:58:32;7.85;;;4.45;;
85011;SDS011;75336;42.142;21.732;2024-02-26T13:00:59;6.07;;;3.30;;
85011;SDS011;75336;42.142;21.732;2024-02-26T13:03:25;6.05;;;3.60;;
85011;SDS011;75336;42.142;21.732;2024-02-26T13:05:52;8.95;;;4.80;;
85011;SDS011;75336;42.142;21.732;2024-02-26T13:08:19;11.23;;;6.05;;
85011;SDS011;75336;42.142;21.732;2024-02-26T13:10:46;10.20;;;6.25;;
85011;SDS011;75336;42.142;21.732;2024-02-26T13:13:15;9.77;;;5.22;;
85011;SDS011;75336;42.142;21.732;2024-02-26T13:15:42;26.75;;;15.60;;
85011;SDS011;75336;42.142;21.732;2024-02-26T13:18:09;7.93;;;4.78;;
85011;SDS011;75336;42.142;21.732;2024-02-26T13:20:36;4.53;;;3.63;;
85011;SDS011;75336;42.142;21.732;2024-02-26T13:23:06;4.82;;;3.58;;
85011;SDS011;75336;42.142;21.732;2024-02-26T13:25:34;6.25;;;4.57;;
85011;SDS011;75336;42.142;21.732;2024-02-26T13:28:34;10.90;;;5.50;;
85011;SDS011;75336;42.142;21.732;2024-02-26T13:30:54;5.88;;;3.42;;
85011;SDS011;75336;42.142;21.732;2024-02-26T13:33:25;9.82;;;3.90;;
85011;SDS011;75336;42.142;21.732;2024-02-26T13:35:51;9.57;;;6.10;;
85011;SDS011;75336;42.142;21.732;2024-02-26T13:38:18;6.10;;;4.25;;
85011;SDS011;75336;42.142;21.732;2024-02-26T13:40:44;9.38;;;5.22;;
85011;SDS011;75336;42.142;21.732;2024-02-26T13:43:10;10.07;;;7.28;;
85011;SDS011;75336;42.142;21.732;2024-02-26T13:45:37;7.43;;;4.18;;
85011;SDS011;75336;42.142;21.732;2024-02-26T13:48:04;7.45;;;5.03;;
85011;SDS011;75336;42.142;21.732;2024-02-26T13:50:31;7.53;;;3.70;;
85011;SDS011;75336;42.142;21.732;2024-02-26T13:52:57;5.18;;;3.40;;
85011;SDS011;75336;42.142;21.732;2024-02-26T13:55:25;5.82;;;3.42;;
85011;SDS011;75336;42.142;21.732;2024-02-26T13:57:53;12.77;;;5.32;;
85011;SDS011;75336;42.142;21.732;2024-02-26T14:00:19;52.40;;;33.45;;
85011;SDS011;75336;42.142;21.732;2024-02-26T14:02:46;11.82;;;7.93;;
85011;SDS011;75336;42.142;21.732;2024-02-26T14:05:12;5.72;;;3.50;;
85011;SDS011;75336;42.142;21.732;2024-02-26T14:07:38;7.15;;;4.22;;
85011;SDS011;75336;42.142;21.732;2024-02-26T14:10:05;9.60;;;3.80;;
85011;SDS011;75336;42.142;21.732;2024-02-26T14:12:31;6.82;;;3.95;;
85011;SDS011;75336;42.142;21.732;2024-02-26T14:14:57;6.18;;;4.18;;
85011;SDS011;75336;42.142;21.732;2024-02-26T14:17:26;11.32;;;4.57;;
85011;SDS011;75336;42.142;21.732;2024-02-26T14:19:52;8.75;;;4.38;;
85011;SDS011;75336;42.142;21.732;2024-02-26T14:22:19;12.18;;;7.50;;
85011;SDS011;75336;42.142;21.732;2024-02-26T14:24:45;21.88;;;12.68;;
85011;SDS011;75336;42.142;21.732;2024-02-26T14:27:12;22.88;;;13.48;;
85011;SDS011;75336;42.142;21.732;2024-02-26T14:29:44;13.02;;;8.55;;
85011;SDS011;75336;42.142;21.732;2024-02-26T14:32:10;9.00;;;4.03;;
85011;SDS011;75336;42.142;21.732;2024-02-26T14:34:37;16.77;;;10.02;;
85011;SDS011;75336;42.142;21.732;2024-02-26T14:37:03;16.27;;;8.23;;